Time;durP1;ratioP1;P1;durP2;ratioP2;P2;SDS_P1;SDS_P2;PMS_P1;PMS_P2;Temp;Humidity;BMP_temperature;BMP_pressure;BME280_temperature;BME280_humidity;BME280_pressure;Samples;Min_cycle;Max_cycle;Signal;HPM_P1;HPM_P2
2022/03/08 00:00:26;;;;;;;11.70;8.35;;;2.50;99.90;;;;;;5018219;28;20030;-72
2022/03/08 00:02:54;;;;;;;13.13;9.07;;;2.50;99.90;;;;;;5001358;28;20389;-72
2022/03/08 00:05:20;;;;;;;15.98;9.55;;;2.50;99.90;;;;;;5001689;28;20310;-72
2022/03/08 00:07:47;;;;;;;14.75;9.18;;;2.60;99.90;;;;;;5017535;28;20116;-72
2022/03/08 00:10:13;;;;;;;12.93;9.35;;;2.50;99.90;;;;;;5017459;28;20329;-72
2022/03/08 00:12:39;;;;;;;13.30;9.13;;;2.40;99.90;;;;;;5018385;28;20088;-72
2022/03/08 00:15:12;;;;;;;12.27;8.95;;;2.30;99.90;;;;;;5019295;28;20070;-71
2022/03/08 00:17:39;;;;;;;15.35;10.88;;;2.40;99.90;;;;;;5018803;28;20129;-73
2022/03/08 00:20:07;;;;;;;15.48;10.63;;;2.50;99.90;;;;;;5019428;28;20489;-72
2022/03/08 00:22:34;;;;;;;17.25;10.70;;;2.40;99.90;;;;;;5020259;28;20045;-72
2022/03/08 00:25:03;;;;;;;15.02;10.23;;;2.40;99.90;;;;;;5018937;28;20030;-72
2022/03/08 00:27:29;;;;;;;13.38;9.93;;;2.40;99.90;;;;;;5018156;28;20082;-72
2022/03/08 00:29:56;;;;;;;16.23;10.23;;;2.40;99.90;;;;;;5017607;28;20302;-71
2022/03/08 00:32:23;;;;;;;16.98;9.88;;;2.50;99.90;;;;;;5017858;28;20025;-71
2022/03/08 00:34:49;;;;;;;14.50;9.35;;;2.40;99.90;;;;;;5020545;28;20030;-72
2022/03/08 00:37:15;;;;;;;13.43;9.35;;;2.30;99.90;;;;;;5006604;28;20044;-73
2022/03/08 00:39:41;;;;;;;13.40;8.88;;;2.20;99.90;;;;;;5024369;28;20037;-72
2022/03/08 00:42:11;;;;;;;14.23;9.05;;;2.10;99.90;;;;;;5007988;28;20077;-73
2022/03/08 00:44:42;;;;;;;12.15;8.43;;;2.00;99.90;;;;;;5009299;28;20364;-72
2022/03/08 00:47:09;;;;;;;15.95;9.18;;;2.00;99.90;;;;;;5024357;28;20058;-72
2022/03/08 00:49:36;;;;;;;14.43;8.65;;;2.00;99.90;;;;;;5025691;28;20026;-73
2022/03/08 00:52:03;;;;;;;12.02;8.10;;;2.00;99.90;;;;;;5025212;28;20034;-73
2022/03/08 00:54:29;;;;;;;13.02;8.85;;;2.00;99.90;;;;;;5026627;28;20037;-72
2022/03/08 00:56:55;;;;;;;11.63;8.50;;;1.90;99.90;;;;;;5025428;28;20073;-73
2022/03/08 00:59:21;;;;;;;11.00;7.90;;;1.90;99.90;;;;;;5024940;28;20081;-73
2022/03/08 01:01:48;;;;;;;12.82;8.35;;;1.90;99.90;;;;;;5024233;28;20336;-72
2022/03/08 01:04:14;;;;;;;14.90;8.00;;;1.90;99.90;;;;;;5007140;28;20038;-72
2022/03/08 01:06:43;;;;;;;10.32;7.75;;;1.80;99.90;;;;;;5024024;28;20053;-73
2022/03/08 01:09:10;;;;;;;10.98;7.45;;;1.90;99.90;;;;;;5021961;28;20084;-73
2022/03/08 01:11:39;;;;;;;10.98;7.93;;;1.90;99.90;;;;;;5025377;28;20030;-73
2022/03/08 01:14:07;;;;;;;11.45;8.10;;;1.90;99.90;;;;;;5025022;28;20092;-73
2022/03/08 01:16:34;;;;;;;13.55;8.10;;;1.90;99.90;;;;;;5024675;28;20054;-74
2022/03/08 01:19:00;;;;;;;10.55;7.53;;;1.90;99.90;;;;;;5026191;28;20018;-73
2022/03/08 01:21:25;;;;;;;13.55;8.18;;;1.80;99.90;;;;;;5042718;28;20321;-73
2022/03/08 01:23:53;;;;;;;11.32;7.78;;;1.80;99.90;;;;;;5025756;28;20040;-73
2022/03/08 01:26:19;;;;;;;13.02;8.38;;;1.80;99.90;;;;;;5025073;28;20026;-73
2022/03/08 01:28:45;;;;;;;11.10;8.18;;;1.80;99.90;;;;;;5025966;28;20088;-73
2022/03/08 01:31:11;;;;;;;13.57;8.25;;;1.80;99.90;;;;;;5026777;28;20030;-73
2022/03/08 01:33:37;;;;;;;13.05;8.43;;;1.70;99.90;;;;;;5010287;28;20034;-72
2022/03/08 01:36:03;;;;;;;14.20;7.85;;;1.80;99.90;;;;;;5026682;28;20080;-73
2022/03/08 01:38:29;;;;;;;9.73;7.60;;;1.70;99.90;;;;;;5026727;28;20407;-73
2022/03/08 01:40:56;;;;;;;11.13;7.72;;;1.70;99.90;;;;;;5008745;28;20037;-72
2022/03/08 01:43:22;;;;;;;17.75;8.10;;;1.70;99.90;;;;;;5024731;28;20060;-73
2022/03/08 01:45:48;;;;;;;11.20;8.23;;;1.60;99.90;;;;;;5024412;28;20037;-73
2022/03/08 01:48:14;;;;;;;11.98;7.90;;;1.60;99.90;;;;;;5025664;28;20085;-73
2022/03/08 01:50:39;;;;;;;13.63;8.13;;;1.60;99.90;;;;;;4991853;28;20062;-73
2022/03/08 01:53:06;;;;;;;11.90;8.13;;;1.70;99.90;;;;;;5024760;28;20029;-73
2022/03/08 01:55:33;;;;;;;11.07;7.78;;;1.70;99.90;;;;;;5027084;28;20038;-73
2022/03/08 01:57:59;;;;;;;11.65;7.88;;;1.70;99.90;;;;;;5026852;28;20021;-73
2022/03/08 02:00:29;;;;;;;12.13;7.95;;;1.70;99.90;;;;;;5026820;28;20041;-73
2022/03/08 02:02:56;;;;;;;14.43;8.27;;;1.70;99.90;;;;;;5025773;28;20034;-73
2022/03/08 02:05:24;;;;;;;10.05;7.55;;;1.70;99.90;;;;;;5026975;28;20042;-73
2022/03/08 02:07:50;;;;;;;14.88;8.50;;;1.70;99.90;;;;;;5025904;28;20034;-73
2022/03/08 02:10:16;;;;;;;10.07;7.60;;;1.60;99.90;;;;;;5024676;28;20287;-73
2022/03/08 02:12:42;;;;;;;11.52;7.72;;;1.70;99.90;;;;;;5024334;28;20033;-73
2022/03/08 02:15:26;;;;;;;11.60;7.57;;;1.60;99.90;;;;;;5024807;28;20038;-73
2022/03/08 02:17:54;;;;;;;11.85;7.75;;;1.50;99.90;;;;;;5024756;28;20030;-73
2022/03/08 02:20:20;;;;;;;10.77;7.75;;;1.60;99.90;;;;;;5024803;28;20038;-73
2022/03/08 02:22:48;;;;;;;13.95;8.20;;;1.60;99.90;;;;;;5022878;28;20318;-73
2022/03/08 02:25:15;;;;;;;13.18;8.43;;;1.40;99.90;;;;;;5023475;28;20034;-73
2022/03/08 02:27:43;;;;;;;11.68;8.50;;;1.40;99.90;;;;;;5024029;28;20164;-73
2022/03/08 02:30:11;;;;;;;12.30;8.82;;;1.40;99.90;;;;;;5022336;28;20042;-73
2022/03/08 02:32:37;;;;;;;10.23;7.72;;;1.30;99.90;;;;;;5022763;28;20057;-73
2022/03/08 02:35:13;;;;;;;12.02;8.00;;;1.30;99.90;;;;;;5022940;28;20085;-72
2022/03/08 02:37:41;;;;;;;10.32;7.55;;;1.30;99.90;;;;;;5022996;28;20033;-73
2022/03/08 02:40:10;;;;;;;12.27;8.20;;;1.30;99.90;;;;;;5024254;28;20048;-73
2022/03/08 02:42:36;;;;;;;12.35;7.95;;;1.20;99.90;;;;;;5023890;28;20093;-73
2022/03/08 02:45:02;;;;;;;12.23;7.82;;;1.20;99.90;;;;;;5023324;28;20034;-74
2022/03/08 02:47:28;;;;;;;11.93;7.85;;;1.20;99.90;;;;;;5022839;28;20093;-73
2022/03/08 02:49:54;;;;;;;12.20;8.10;;;1.20;99.90;;;;;;5024414;28;20105;-73
2022/03/08 02:52:20;;;;;;;13.57;8.20;;;1.20;99.90;;;;;;5008119;28;20037;-73
2022/03/08 02:54:45;;;;;;;11.70;7.75;;;1.20;99.90;;;;;;5024147;28;20113;-73
2022/03/08 02:57:11;;;;;;;11.93;7.85;;;1.20;99.90;;;;;;5023058;28;20026;-72
2022/03/08 02:59:37;;;;;;;11.60;8.00;;;1.20;99.90;;;;;;5022768;28;20437;-73
2022/03/08 03:02:03;;;;;;;11.00;7.93;;;1.20;99.90;;;;;;5021437;28;20030;-73
2022/03/08 03:04:29;;;;;;;13.68;8.30;;;1.10;99.90;;;;;;5022531;28;20033;-73
2022/03/08 03:06:55;;;;;;;12.05;7.97;;;1.10;99.90;;;;;;5021502;28;20048;-73
2022/03/08 03:09:21;;;;;;;13.75;7.95;;;1.10;99.90;;;;;;5022528;28;20025;-73
2022/03/08 03:11:47;;;;;;;13.07;8.32;;;1.10;99.90;;;;;;5023860;28;20042;-73
2022/03/08 03:14:13;;;;;;;12.38;7.65;;;1.10;99.90;;;;;;5023432;28;20352;-73
2022/03/08 03:16:38;;;;;;;10.82;7.43;;;1.10;99.90;;;;;;5056270;28;20050;-73
2022/03/08 03:19:04;;;;;;;13.75;7.80;;;1.20;99.90;;;;;;5023102;28;20410;-73
2022/03/08 03:21:30;;;;;;;12.00;7.90;;;1.20;99.90;;;;;;5023413;28;20030;-73
2022/03/08 03:23:56;;;;;;;13.82;8.02;;;1.10;99.90;;;;;;5022487;28;20026;-73
2022/03/08 03:26:23;;;;;;;14.13;8.00;;;1.20;99.90;;;;;;5021846;28;20033;-72
2022/03/08 03:28:49;;;;;;;15.32;7.68;;;1.20;99.90;;;;;;5005519;28;20061;-73
2022/03/08 03:31:15;;;;;;;11.50;8.25;;;1.10;99.90;;;;;;5023896;28;20038;-73
2022/03/08 03:33:41;;;;;;;13.02;8.60;;;1.30;99.90;;;;;;5024812;28;20061;-73
2022/03/08 03:36:07;;;;;;;13.85;7.93;;;1.30;99.90;;;;;;5005787;28;20021;-73
2022/03/08 03:38:33;;;;;;;13.18;8.63;;;1.20;99.90;;;;;;5022204;28;20030;-73
2022/03/08 03:40:59;;;;;;;13.50;8.20;;;1.20;99.90;;;;;;5021436;28;20424;-73
2022/03/08 03:43:24;;;;;;;12.40;7.85;;;1.20;99.90;;;;;;5020526;28;20050;-73
2022/03/08 03:45:50;;;;;;;11.50;8.02;;;1.20;99.90;;;;;;5019504;28;20038;-73
2022/03/08 03:48:16;;;;;;;16.23;7.80;;;1.10;99.90;;;;;;5001888;28;20038;-72
2022/03/08 03:50:42;;;;;;;12.45;7.57;;;1.10;99.90;;;;;;5002469;28;20038;-73
2022/03/08 03:53:08;;;;;;;11.48;8.05;;;1.10;99.90;;;;;;5020954;28;20022;-73
2022/03/08 03:55:34;;;;;;;9.80;7.85;;;1.00;99.90;;;;;;5021511;28;20030;-73
2022/03/08 03:58:00;;;;;;;13.60;7.93;;;1.00;99.90;;;;;;5020838;28;20364;-73
2022/03/08 04:00:27;;;;;;;15.45;7.95;;;1.00;99.90;;;;;;5021424;28;20077;-73
2022/03/08 04:02:53;;;;;;;14.25;7.90;;;1.00;99.90;;;;;;5021947;28;20341;-73
2022/03/08 04:05:19;;;;;;;11.25;8.18;;;1.10;99.90;;;;;;5021847;28;20057;-73
2022/03/08 04:07:45;;;;;;;12.55;8.48;;;1.10;99.90;;;;;;5023701;28;20097;-73
2022/03/08 04:10:13;;;;;;;13.85;8.82;;;1.00;99.90;;;;;;5010451;28;20381;-72
2022/03/08 04:12:39;;;;;;;10.82;7.97;;;0.90;99.90;;;;;;5027613;28;20033;-73
2022/03/08 04:15:05;;;;;;;14.15;8.13;;;0.90;99.90;;;;;;5025850;28;20026;-73
2022/03/08 04:17:31;;;;;;;14.27;8.13;;;1.00;99.90;;;;;;5027313;28;20035;-73
2022/03/08 04:19:57;;;;;;;12.82;8.38;;;0.90;99.90;;;;;;5028647;28;20290;-73
2022/03/08 04:22:23;;;;;;;12.07;8.32;;;0.90;99.90;;;;;;5028418;28;20030;-72
2022/03/08 04:24:49;;;;;;;13.10;8.45;;;0.90;99.90;;;;;;5027762;28;20096;-73
2022/03/08 04:27:15;;;;;;;13.43;7.50;;;1.00;99.90;;;;;;5026005;28;20038;-73
2022/03/08 04:29:40;;;;;;;11.82;8.10;;;0.80;99.90;;;;;;5025557;28;20029;-73
2022/03/08 04:32:07;;;;;;;16.83;8.43;;;0.70;99.90;;;;;;5007012;28;20029;-76
2022/03/08 04:34:32;;;;;;;10.95;7.90;;;0.70;99.90;;;;;;5056282;28;20026;-74
2022/03/08 04:36:58;;;;;;;12.45;8.18;;;0.70;99.90;;;;;;5024109;28;20385;-74
2022/03/08 04:39:24;;;;;;;12.38;8.05;;;0.70;99.90;;;;;;5023510;28;20397;-76
2022/03/08 04:41:50;;;;;;;11.23;7.82;;;0.70;99.90;;;;;;5022988;28;20030;-75
2022/03/08 04:44:16;;;;;;;11.90;7.80;;;0.80;99.90;;;;;;5039476;28;20125;-75
2022/03/08 04:46:42;;;;;;;12.30;8.07;;;0.70;99.90;;;;;;5006410;28;20033;-75
2022/03/08 04:49:08;;;;;;;13.05;7.50;;;0.70;99.90;;;;;;5023464;28;20048;-74
2022/03/08 04:51:34;;;;;;;13.65;8.20;;;0.70;99.90;;;;;;5023820;28;20018;-74
2022/03/08 04:54:00;;;;;;;11.70;7.93;;;0.70;99.90;;;;;;5023440;28;20064;-74
2022/03/08 04:56:26;;;;;;;11.50;8.07;;;0.70;99.90;;;;;;5022775;28;20037;-75
2022/03/08 04:58:53;;;;;;;11.38;7.82;;;0.70;99.90;;;;;;5006255;28;20370;-76
2022/03/08 05:01:19;;;;;;;13.60;8.48;;;0.60;99.90;;;;;;5023685;28;20310;-75
2022/03/08 05:03:45;;;;;;;12.38;8.55;;;0.60;99.90;;;;;;5023231;28;20091;-74
2022/03/08 05:06:11;;;;;;;14.20;8.52;;;0.60;99.90;;;;;;5023288;28;20029;-74
2022/03/08 05:08:37;;;;;;;12.50;7.72;;;0.70;99.90;;;;;;5022691;28;20053;-74
2022/03/08 05:11:03;;;;;;;14.32;8.02;;;0.70;99.90;;;;;;5006631;28;20049;-76
2022/03/08 05:13:31;;;;;;;14.23;8.55;;;0.60;99.90;;;;;;5006547;28;20274;-75
2022/03/08 05:15:57;;;;;;;15.63;8.43;;;0.60;99.90;;;;;;5022677;28;20030;-74
2022/03/08 05:18:23;;;;;;;14.10;8.98;;;0.60;99.90;;;;;;4989969;28;20037;-74
2022/03/08 05:20:49;;;;;;;12.45;8.35;;;0.50;99.90;;;;;;5019934;28;20042;-75
2022/03/08 05:23:15;;;;;;;16.45;9.27;;;0.60;99.90;;;;;;5019602;28;20309;-75
2022/03/08 05:25:45;;;;;;;12.75;7.82;;;0.60;99.90;;;;;;5020018;28;20026;-76
2022/03/08 05:28:11;;;;;;;13.88;8.63;;;0.60;99.90;;;;;;5019716;28;20033;-74
2022/03/08 05:30:37;;;;;;;12.07;8.30;;;0.50;99.90;;;;;;5003518;28;20041;-74
2022/03/08 05:33:03;;;;;;;12.98;9.40;;;0.50;99.90;;;;;;5020753;28;20038;-76
2022/03/08 05:35:28;;;;;;;12.60;8.85;;;0.50;99.90;;;;;;5019054;28;20038;-75
2022/03/08 05:37:54;;;;;;;13.25;8.60;;;0.40;99.90;;;;;;5019472;28;20080;-75
2022/03/08 05:40:20;;;;;;;15.60;9.07;;;0.50;99.90;;;;;;5019244;28;20144;-75
2022/03/08 05:42:46;;;;;;;13.77;8.75;;;0.40;99.90;;;;;;5019671;28;20064;-75
2022/03/08 05:45:12;;;;;;;13.07;8.57;;;0.40;99.90;;;;;;5019355;28;20042;-75
2022/03/08 05:47:40;;;;;;;13.57;8.75;;;0.30;99.90;;;;;;5019570;28;20049;-75
2022/03/08 05:50:07;;;;;;;12.77;8.25;;;0.20;99.90;;;;;;5019644;28;20382;-74
2022/03/08 05:52:33;;;;;;;12.23;8.18;;;0.30;99.90;;;;;;5018773;28;20037;-77
2022/03/08 05:54:59;;;;;;;14.52;8.50;;;0.30;99.90;;;;;;5019467;28;20075;-75
2022/03/08 05:57:25;;;;;;;13.80;7.95;;;0.40;99.90;;;;;;5018687;28;20037;-75
2022/03/08 05:59:50;;;;;;;16.17;8.88;;;0.30;99.90;;;;;;5003207;28;20056;-74
2022/03/08 06:02:17;;;;;;;16.50;8.65;;;0.40;99.90;;;;;;5020199;28;20034;-73
2022/03/08 06:04:43;;;;;;;18.55;8.90;;;0.40;99.90;;;;;;5019223;28;20045;-77
2022/03/08 06:07:09;;;;;;;12.88;8.38;;;0.40;99.90;;;;;;5018816;28;20026;-77
2022/03/08 06:09:35;;;;;;;13.63;8.40;;;0.40;99.90;;;;;;5019309;28;20029;-74
2022/03/08 06:12:01;;;;;;;13.20;8.23;;;0.30;99.90;;;;;;5018702;28;20113;-73
2022/03/08 06:14:27;;;;;;;14.25;9.10;;;0.30;99.90;;;;;;5018586;28;20026;-75
2022/03/08 06:16:53;;;;;;;13.80;8.77;;;0.30;99.90;;;;;;5018399;28;20026;-75
2022/03/08 06:19:19;;;;;;;14.45;8.05;;;0.40;99.90;;;;;;5020217;28;20053;-75
2022/03/08 06:21:45;;;;;;;13.93;8.40;;;0.40;99.90;;;;;;5020041;28;20021;-77
2022/03/08 06:24:11;;;;;;;14.63;8.80;;;0.30;99.90;;;;;;5021058;28;20045;-76
2022/03/08 06:26:37;;;;;;;15.00;8.88;;;0.30;99.90;;;;;;5037803;28;20033;-75
2022/03/08 06:29:04;;;;;;;12.55;8.70;;;0.30;99.90;;;;;;5027678;28;20073;-75
2022/03/08 06:31:29;;;;;;;14.30;8.60;;;0.30;99.90;;;;;;5026154;28;20022;-75
2022/03/08 06:33:55;;;;;;;14.32;8.70;;;0.40;99.90;;;;;;5020817;28;20044;-73
2022/03/08 06:36:21;;;;;;;12.82;9.13;;;0.40;99.90;;;;;;5003940;28;20113;-74
2022/03/08 06:38:47;;;;;;;13.63;8.75;;;0.50;99.90;;;;;;5023689;28;20030;-75
2022/03/08 06:41:13;;;;;;;15.45;8.88;;;0.50;99.90;;;;;;5018723;28;20074;-74
2022/03/08 06:43:41;;;;;;;12.63;8.43;;;0.50;99.90;;;;;;5017971;28;20140;-75
2022/03/08 06:46:08;;;;;;;13.45;8.40;;;0.50;99.90;;;;;;5018356;28;20042;-76
2022/03/08 06:48:35;;;;;;;14.82;8.75;;;0.60;99.90;;;;;;5001552;28;20125;-74
2022/03/08 06:51:01;;;;;;;12.43;8.07;;;0.60;99.90;;;;;;5018015;28;20433;-74
2022/03/08 06:53:28;;;;;;;13.40;8.38;;;0.60;99.90;;;;;;5017762;28;20030;-75
2022/03/08 06:55:54;;;;;;;14.35;8.57;;;0.60;99.90;;;;;;5018766;28;20052;-75
2022/03/08 06:58:20;;;;;;;15.73;8.88;;;0.80;99.90;;;;;;5017675;28;20049;-74
2022/03/08 07:00:45;;;;;;;13.05;8.38;;;0.80;99.90;;;;;;5018509;28;20047;-76
2022/03/08 07:03:11;;;;;;;14.82;9.32;;;0.80;99.90;;;;;;5017666;28;20406;-74
2022/03/08 07:05:38;;;;;;;15.00;8.90;;;0.80;99.90;;;;;;4985085;28;20314;-74
2022/03/08 07:08:05;;;;;;;14.55;8.85;;;0.90;99.90;;;;;;5019824;28;20042;-75
2022/03/08 07:10:31;;;;;;;13.85;8.85;;;1.00;99.90;;;;;;5019963;28;20133;-74
2022/03/08 07:12:57;;;;;;;13.60;8.32;;;1.00;99.90;;;;;;5021797;28;20057;-72
2022/03/08 07:15:23;;;;;;;12.18;7.97;;;1.00;99.90;;;;;;5018077;28;20357;-74
2022/03/08 07:17:49;;;;;;;11.27;8.38;;;1.10;99.90;;;;;;5018793;28;20266;-74
2022/03/08 07:20:15;;;;;;;14.95;7.97;;;1.20;99.90;;;;;;5034793;28;20092;-75
2022/03/08 07:22:42;;;;;;;12.35;7.95;;;1.20;99.90;;;;;;5020568;28;20034;-74
2022/03/08 07:25:09;;;;;;;13.60;8.93;;;1.30;99.90;;;;;;5018904;28;20033;-74
2022/03/08 07:27:35;;;;;;;16.88;8.77;;;1.40;99.90;;;;;;5018222;28;20029;-74
2022/03/08 07:30:03;;;;;;;13.93;9.00;;;1.50;99.90;;;;;;5020297;28;20073;-75
2022/03/08 07:32:29;;;;;;;9.07;6.55;;;1.60;99.90;;;;;;5019009;28;20028;-71
2022/03/08 07:34:55;;;;;;;15.00;8.88;;;2.30;99.90;;;;;;5003872;28;20030;-75
2022/03/08 07:37:21;;;;;;;13.40;8.27;;;2.50;99.90;;;;;;5022637;28;20113;-73
2022/03/08 07:39:46;;;;;;;16.20;8.40;;;2.40;99.90;;;;;;5003933;28;20309;-72
2022/03/08 07:42:12;;;;;;;20.05;9.50;;;2.30;99.90;;;;;;5018423;28;20089;-73
2022/03/08 07:44:39;;;;;;;18.65;8.85;;;2.10;99.90;;;;;;5018369;28;20101;-75
2022/03/08 07:47:05;;;;;;;15.82;8.82;;;2.20;99.90;;;;;;5019855;28;20148;-69
2022/03/08 07:49:32;;;;;;;19.48;8.90;;;2.20;99.90;;;;;;5018261;28;20125;-74
2022/03/08 07:51:57;;;;;;;14.50;8.25;;;3.30;99.90;;;;;;5017642;28;20104;-73
2022/03/08 07:54:23;;;;;;;14.05;8.52;;;3.00;99.90;;;;;;5019047;28;20084;-73
2022/03/08 07:56:49;;;;;;;10.25;7.40;;;2.80;99.90;;;;;;5018077;28;20030;-73
2022/03/08 07:59:15;;;;;;;11.20;8.27;;;2.70;99.90;;;;;;5019397;28;20092;-74
2022/03/08 08:01:41;;;;;;;14.40;7.85;;;2.70;99.90;;;;;;5035210;28;20112;-73
2022/03/08 08:04:07;;;;;;;11.15;8.13;;;2.70;99.90;;;;;;5001817;28;20038;-72
2022/03/08 08:06:33;;;;;;;15.68;8.10;;;2.70;99.90;;;;;;5017468;28;20378;-71
2022/03/08 08:08:58;;;;;;;14.00;7.93;;;2.80;99.90;;;;;;5000472;28;20034;-72
2022/03/08 08:11:24;;;;;;;11.70;8.10;;;2.90;99.90;;;;;;5001436;28;20112;-72
2022/03/08 08:13:51;;;;;;;10.73;8.05;;;3.00;99.90;;;;;;5018639;28;20029;-71
2022/03/08 08:16:18;;;;;;;11.57;7.40;;;3.00;99.90;;;;;;5018109;28;20037;-71
2022/03/08 08:18:44;;;;;;;12.05;8.13;;;3.10;99.90;;;;;;5017344;28;20314;-71
2022/03/08 08:21:10;;;;;;;11.65;7.80;;;3.00;99.90;;;;;;5016613;28;20463;-71
2022/03/08 08:23:36;;;;;;;12.57;7.82;;;3.00;99.90;;;;;;4999984;28;20331;-71
2022/03/08 08:26:02;;;;;;;13.63;7.85;;;3.00;99.90;;;;;;5016418;28;20041;-71
2022/03/08 08:28:27;;;;;;;11.73;7.43;;;3.10;99.90;;;;;;5016901;28;20115;-71
2022/03/08 08:30:53;;;;;;;11.90;7.40;;;3.20;99.90;;;;;;5016269;28;20034;-71
2022/03/08 08:33:19;;;;;;;11.15;7.72;;;3.40;99.90;;;;;;4999961;28;20026;-71
2022/03/08 08:35:45;;;;;;;11.30;7.85;;;3.50;99.90;;;;;;5016155;28;20026;-72
2022/03/08 08:38:11;;;;;;;10.82;7.40;;;3.60;99.90;;;;;;5016763;28;20034;-70
2022/03/08 08:40:36;;;;;;;10.30;6.95;;;3.80;99.90;;;;;;4983546;28;20290;-70
2022/03/08 08:43:05;;;;;;;11.52;7.15;;;3.80;99.90;;;;;;5016628;28;20076;-71
2022/03/08 08:45:31;;;;;;;11.13;7.25;;;3.90;99.90;;;;;;5000523;28;20049;-72
2022/03/08 08:47:58;;;;;;;10.27;7.60;;;3.90;99.90;;;;;;5016172;28;20030;-71
2022/03/08 08:50:24;;;;;;;9.75;7.30;;;4.00;99.90;;;;;;5015875;28;20101;-71
2022/03/08 08:52:50;;;;;;;13.43;6.75;;;4.00;99.90;;;;;;5015896;28;20030;-71
2022/03/08 08:55:15;;;;;;;11.73;6.57;;;4.10;99.90;;;;;;5018745;28;20351;-72
2022/03/08 08:57:41;;;;;;;8.15;5.95;;;4.30;99.90;;;;;;5020475;28;20041;-72
2022/03/08 09:00:09;;;;;;;10.77;6.43;;;4.50;99.90;;;;;;5003180;28;20044;-72
2022/03/08 09:02:35;;;;;;;9.27;6.00;;;4.60;99.90;;;;;;5020106;28;20419;-71
2022/03/08 09:05:01;;;;;;;8.13;5.60;;;4.80;99.90;;;;;;5021452;28;20068;-72
2022/03/08 09:07:27;;;;;;;6.63;5.15;;;4.70;99.90;;;;;;5020557;28;20033;-69
2022/03/08 09:09:52;;;;;;;7.10;5.53;;;4.70;99.90;;;;;;5003424;28;20042;-73
2022/03/08 09:12:18;;;;;;;11.95;6.03;;;5.00;99.90;;;;;;5021219;28;20026;-72
2022/03/08 09:14:44;;;;;;;8.70;6.15;;;5.00;99.90;;;;;;5003566;28;20030;-73
2022/03/08 09:17:10;;;;;;;7.78;5.75;;;5.00;99.90;;;;;;5004316;28;20026;-72
2022/03/08 09:19:35;;;;;;;7.43;5.57;;;5.10;99.90;;;;;;5021485;28;20121;-73
2022/03/08 09:22:02;;;;;;;11.88;6.13;;;5.10;99.90;;;;;;5020313;28;20029;-72
2022/03/08 09:24:27;;;;;;;6.30;5.57;;;5.20;99.90;;;;;;5003305;28;20030;-72
2022/03/08 09:26:53;;;;;;;7.28;5.55;;;5.30;99.90;;;;;;5003018;28;20038;-72
2022/03/08 09:29:19;;;;;;;8.48;5.45;;;5.40;99.90;;;;;;5020373;28;20030;-72
2022/03/08 09:31:45;;;;;;;8.63;5.70;;;5.40;99.90;;;;;;5021528;28;20120;-73
2022/03/08 09:34:11;;;;;;;8.88;5.82;;;5.40;99.90;;;;;;5037123;28;20038;-71
2022/03/08 09:36:37;;;;;;;7.70;5.75;;;5.60;99.90;;;;;;5005037;28;20087;-73
2022/03/08 09:39:05;;;;;;;9.23;5.38;;;5.70;99.90;;;;;;5019418;28;20416;-72
2022/03/08 09:41:31;;;;;;;6.60;5.43;;;5.80;99.90;;;;;;5019065;28;20038;-72
2022/03/08 09:44:00;;;;;;;7.45;5.50;;;5.80;99.90;;;;;;5019775;28;20180;-70
2022/03/08 09:46:25;;;;;;;8.68;5.60;;;5.80;99.90;;;;;;5020031;28;20029;-70
2022/03/08 09:48:51;;;;;;;7.13;5.85;;;5.80;99.90;;;;;;5019907;28;20042;-70
2022/03/08 09:51:18;;;;;;;8.77;5.60;;;5.80;99.90;;;;;;5003776;28;20104;-74
2022/03/08 09:53:45;;;;;;;6.78;5.60;;;5.90;99.90;;;;;;5019848;28;20038;-71
2022/03/08 09:56:12;;;;;;;8.48;5.65;;;5.90;99.90;;;;;;5019926;28;20068;-71
2022/03/08 09:58:40;;;;;;;6.68;5.32;;;5.90;99.90;;;;;;5019285;28;20061;-71
2022/03/08 10:01:06;;;;;;;7.30;5.07;;;6.00;99.90;;;;;;5020339;28;20117;-72
2022/03/08 10:03:38;;;;;;;8.48;5.93;;;6.10;99.90;;;;;;5004369;28;20044;-71
2022/03/08 10:06:06;;;;;;;7.68;5.82;;;6.20;99.90;;;;;;5019903;28;20034;-71
2022/03/08 10:08:32;;;;;;;8.32;5.45;;;6.30;99.90;;;;;;5020222;28;20018;-74
2022/03/08 10:11:09;;;;;;;9.32;6.35;;;6.40;99.90;;;;;;5003275;28;20066;-73
2022/03/08 10:13:50;;;;;;;10.27;5.43;;;6.60;99.90;;;;;;5019688;28;20045;-74
2022/03/08 10:16:25;;;;;;;7.65;5.30;;;6.60;99.90;;;;;;5051550;28;20033;-73
2022/03/08 10:19:02;;;;;;;9.82;5.75;;;6.80;99.90;;;;;;5018751;28;20034;-73
2022/03/08 10:21:32;;;;;;;5.57;4.95;;;7.00;99.90;;;;;;5018497;28;20025;-74
2022/03/08 10:24:22;;;;;;;7.97;5.00;;;7.10;99.90;;;;;;5019235;28;20026;-72
2022/03/08 10:26:50;;;;;;;6.45;5.32;;;7.40;99.90;;;;;;5035813;28;20313;-72
2022/03/08 10:29:28;;;;;;;6.47;5.05;;;7.40;99.90;;;;;;5018568;28;20034;-73
2022/03/08 10:32:16;;;;;;;5.50;4.95;;;7.60;99.90;;;;;;5019177;28;20068;-73
2022/03/08 10:34:44;;;;;;;9.65;5.25;;;7.90;99.90;;;;;;5018869;28;20118;-72
2022/03/08 10:37:20;;;;;;;8.20;5.65;;;8.40;99.90;;;;;;5019531;28;20077;-71
2022/03/08 10:39:56;;;;;;;7.22;4.80;;;8.70;99.90;;;;;;5018908;28;20038;-74
2022/03/08 10:42:30;;;;;;;6.07;5.10;;;8.90;99.90;;;;;;5002184;28;20429;-73
2022/03/08 10:45:02;;;;;;;5.00;4.50;;;9.00;99.90;;;;;;5018314;28;20052;-71
2022/03/08 10:47:50;;;;;;;6.47;4.57;;;9.60;99.10;;;;;;5018726;28;20053;-72
2022/03/08 10:50:18;;;;;;;7.07;5.07;;;10.20;97.40;;;;;;5018563;28;20450;-72
2022/03/08 10:52:46;;;;;;;4.70;4.18;;;10.90;97.30;;;;;;5019293;28;20030;-73
2022/03/08 10:55:17;;;;;;;6.38;4.88;;;10.90;95.30;;;;;;5019258;28;20071;-74
2022/03/08 10:57:54;;;;;;;5.32;4.82;;;11.00;94.70;;;;;;5001876;28;20072;-72
2022/03/08 11:00:26;;;;;;;9.05;4.85;;;11.20;94.20;;;;;;5018361;28;20034;-72
2022/03/08 11:02:53;;;;;;;5.93;4.70;;;11.50;93.70;;;;;;5017876;28;20041;-74
2022/03/08 11:05:20;;;;;;;8.20;5.30;;;11.60;92.10;;;;;;5017636;28;20033;-74
2022/03/08 11:07:47;;;;;;;6.22;5.15;;;11.80;91.80;;;;;;5017625;28;20291;-73
2022/03/08 11:10:14;;;;;;;6.78;4.65;;;12.50;91.80;;;;;;5018382;28;20087;-70
2022/03/08 11:12:40;;;;;;;5.50;4.93;;;12.10;90.00;;;;;;5018454;28;20045;-71
2022/03/08 11:15:09;;;;;;;5.25;4.78;;;11.70;90.00;;;;;;5017228;28;20124;-70
2022/03/08 11:17:37;;;;;;;5.57;4.93;;;11.30;90.30;;;;;;5018072;28;20022;-69
2022/03/08 11:20:06;;;;;;;6.75;4.53;;;11.40;90.00;;;;;;5017950;28;20305;-70
2022/03/08 11:22:33;;;;;;;5.57;4.60;;;11.70;90.20;;;;;;5018197;28;20040;-74
2022/03/08 11:25:00;;;;;;;5.63;4.80;;;11.70;89.10;;;;;;5001662;28;20436;-70
2022/03/08 11:27:26;;;;;;;5.78;5.00;;;12.10;87.90;;;;;;5018333;28;20129;-72
2022/03/08 11:29:53;;;;;;;6.22;5.05;;;11.60;88.30;;;;;;5018596;28;20283;-71
2022/03/08 11:32:46;;;;;;;6.28;5.25;;;11.60;90.50;;;;;;5019115;28;20113;-72
2022/03/08 11:35:26;;;;;;;5.40;4.88;;;11.80;87.70;;;;;;5018807;28;20030;-73
2022/03/08 11:37:52;;;;;;;6.85;4.90;;;12.60;87.00;;;;;;5018738;28;20030;-70
2022/03/08 11:40:19;;;;;;;4.95;4.43;;;12.50;83.50;;;;;;5002249;28;20040;-73
2022/03/08 11:42:50;;;;;;;7.55;4.88;;;11.70;84.60;;;;;;5019976;28;20505;-72
2022/03/08 11:45:22;;;;;;;6.35;4.70;;;11.40;86.30;;;;;;5018506;28;20305;-73
2022/03/08 11:47:56;;;;;;;6.03;4.63;;;12.00;85.60;;;;;;5017683;28;20045;-72
2022/03/08 11:50:28;;;;;;;4.85;4.45;;;12.70;84.20;;;;;;5022784;28;20049;-72
2022/03/08 11:53:10;;;;;;;5.68;4.97;;;14.00;81.10;;;;;;5017789;28;20045;-71
2022/03/08 11:55:39;;;;;;;8.23;5.28;;;13.90;78.80;;;;;;5017499;28;20334;-72
2022/03/08 11:58:16;;;;;;;5.55;4.65;;;13.40;79.40;;;;;;5017268;28;20041;-73
2022/03/08 12:00:43;;;;;;;6.38;4.70;;;13.70;78.70;;;;;;5034352;28;20025;-71
2022/03/08 12:03:20;;;;;;;6.53;4.70;;;13.60;77.40;;;;;;5017702;28;20030;-72
2022/03/08 12:05:59;;;;;;;5.03;4.50;;;13.70;78.60;;;;;;5016902;28;20044;-72
2022/03/08 12:08:28;;;;;;;5.55;5.00;;;14.20;76.10;;;;;;5017179;28;20037;-72
2022/03/08 12:11:07;;;;;;;6.07;5.13;;;13.20;76.60;;;;;;5016337;28;20521;-70
2022/03/08 12:13:35;;;;;;;9.05;4.38;;;12.40;77.50;;;;;;5018070;28;20409;-72
2022/03/08 12:16:08;;;;;;;8.38;4.50;;;12.30;78.10;;;;;;5017606;28;20037;-72
2022/03/08 12:18:40;;;;;;;6.03;4.97;;;12.20;79.30;;;;;;5017278;28;20033;-73
2022/03/08 12:21:15;;;;;;;4.95;4.45;;;13.40;77.90;;;;;;5017303;28;20085;-72
2022/03/08 12:24:02;;;;;;;5.43;4.53;;;13.60;75.30;;;;;;5017527;28;20041;-70
2022/03/08 12:26:50;;;;;;;8.05;4.80;;;14.60;74.00;;;;;;5018650;28;20052;-70
2022/03/08 12:29:22;;;;;;;5.07;4.53;;;14.20;71.60;;;;;;5019303;28;20196;-71
2022/03/08 12:34:47;;;;;;;5.95;4.63;;;15.30;72.70;;;;;;5021749;28;20390;-72
2022/03/08 12:37:20;;;;;;;5.00;4.50;;;16.60;70.90;;;;;;5022388;28;20120;-67
2022/03/08 12:39:51;;;;;;;5.45;4.38;;;17.20;67.90;;;;;;5021546;28;20354;-68
2022/03/08 12:42:25;;;;;;;4.53;4.03;;;17.70;64.80;;;;;;5019874;28;20111;-69
2022/03/08 12:45:05;;;;;;;6.78;5.15;;;17.20;62.90;;;;;;5021512;28;20054;-70
2022/03/08 12:47:42;;;;;;;5.18;4.68;;;16.80;62.60;;;;;;5021188;28;20034;-69
2022/03/08 12:50:24;;;;;;;5.07;4.53;;;16.60;64.20;;;;;;5020835;28;20057;-69
2022/03/08 12:52:52;;;;;;;6.32;4.85;;;16.30;63.30;;;;;;5020681;28;20066;-67